Airfield :







YOU CAN JOIN US ON...

 
LOGIN :

Register | Disclaimer

   EN    FR    IT 

 









Legend :    VFR   Marginal VFR   IFR   Intensive IFR   Very Intensive IFR
Visi :
Ceiling :
>= 8 km
>= 3000ft
5 to 8 km
1000 to 3000 ft
1500m to 5 km
500 to 1000 ft
800 to 1500m
200 to 500 ft
< 800m
< 200 ft
Symbols :   Thunderstorms  Fog  Heavy snow  Heavy precipitations  Wind > 20 kt






- Airport Elevation : 108 ft
- IATA code : YAY


CYAY - St Anthony

CURRENT METAR :
  • 240600Z AUTO 24014G19KT 9SM -SN OVC075 M03/M04 A2985 RMK SLP112

EXPIRED METARs :
  • 240509Z AUTO 25015G20KT 9SM -SN OVC070 M02/M05 A2985 RMK SLP110
  • 240400Z AUTO 25019G25KT 9SM SCT075 SCT130 OVC150 M03/M05 A2984 RMK SLP109

TAF AMD TAF CYAY
Valid from the 24 at 02:00 until the 24 at 14:00 UTC


240142Z 2402/2414 24015G25KT P6SM -SN SCT015 OVC050
TEMPO 2402/2410 5SM -SN OVC015
FM241000 30012G22KT P6SM SCT030 RMK FCST BASED ON AUTO OBS. NXT FCST BY 240800Z



MET'MAP, your aeronautical weather chart ! - Copyright ORBIFLY December 2007 - Disclaimer

ORBIFLY MET'MAP TEAM :

Programming & Development : Alexandra Zaïnal
Concept & original design : Baudouin d'Aumeries
Assistance for programming : Marc-Olivier Méhu
Technical & hardware support : Manuel Goepfert

Contact : metmap@orbifly.com




SOURCES & CREDITS :

   NOAA